Arthur, Illinois
Current Conditions -  °F | °C
As of 1:53 PM on Friday 24 Oct 2014 (Local Time) from KMTO Reporting Station
Broken Clouds Broken Clouds  
Wind Chill: 19°   Ceiling: 3100
Heat Index: 19°   Visibility: 10mi
Dew Point: 12°   Wind: 7mph
Humidity: 63%   Direction: NA
Pressure: 30.04"   Gusts: NA
Location:  39.71°N, 88.47°W
Report Text: KMTO 241853Z AUTO VRB06KT 10SM BKN031 BKN041 19/12 A3004 RMK AO2 SLP172 T01940122
Loading
Personal Weather Stations






























Interactive Weather Map
Tropical Storm Tracking
New forecast layout! Learn more

10-Day Weather Forecast

Advertisements
Track Severe Weather on mobile